Time,TemperatureF,DewpointF,PressureIn,WindDirection,WindDirectionDegrees,WindSpeedMPH,WindSpeedGustMPH,Humidity,HourlyPrecipIn,Conditions,Clouds,dailyrainin,SoftwareType,DateUTC
2013-07-20 00:09:00,79.0,70.0,29.86,SSE,152,0.0,-999.0,73,-99.99,,,0.00,weatherlink.com 1.10,2013-07-20 05:09:00,
2013-07-20 00:24:00,78.8,69.0,29.86,SSW,201,6.0,-999.0,73,-99.99,,,0.00,weatherlink.com 1.10,2013-07-20 05:24:00,
2013-07-20 00:39:00,78.8,69.0,29.86,SSW,192,0.0,-999.0,72,-99.99,,,0.00,weatherlink.com 1.10,2013-07-20 05:39:00,
2013-07-20 00:54:00,78.5,69.0,29.86,South,189,0.0,-999.0,72,-99.99,,,0.00,weatherlink.com 1.10,2013-07-20 05:54:00,
2013-07-20 01:09:00,78.5,69.0,29.86,SSW,201,0.0,-999.0,72,-99.99,,,0.00,weatherlink.com 1.10,2013-07-20 06:09:00,
2013-07-20 01:24:00,78.3,69.0,29.87,South,182,0.0,-999.0,72,-99.99,,,0.00,weatherlink.com 1.10,2013-07-20 06:24:00,
2013-07-20 01:39:00,77.9,69.0,29.87,South,186,2.0,-999.0,73,-99.99,,,0.00,weatherlink.com 1.10,2013-07-20 06:39:00,
2013-07-20 01:54:00,77.7,68.0,29.87,SSW,192,0.0,-999.0,73,-99.99,,,0.00,weatherlink.com 1.10,2013-07-20 06:54:00,
2013-07-20 02:09:00,77.4,68.0,29.87,SSW,200,7.0,-999.0,73,-99.99,,,0.00,weatherlink.com 1.10,2013-07-20 07:09:00,
2013-07-20 02:24:00,77.2,68.0,29.87,SSW,193,4.0,-999.0,73,-99.99,,,0.00,weatherlink.com 1.10,2013-07-20 07:24:00,
2013-07-20 02:39:00,76.8,68.0,29.86,SSW,212,3.0,-999.0,73,-99.99,,,0.00,weatherlink.com 1.10,2013-07-20 07:39:00,
2013-07-20 02:54:00,76.5,67.0,29.86,SW,216,0.0,-999.0,73,-99.99,,,0.00,weatherlink.com 1.10,2013-07-20 07:54:00,
2013-07-20 03:09:00,76.5,67.0,29.86,SW,225,0.0,-999.0,73,-99.99,,,0.00,weatherlink.com 1.10,2013-07-20 08:09:00,
2013-07-20 03:24:00,76.1,66.0,29.86,SW,221,3.0,-999.0,72,-99.99,,,0.00,weatherlink.com 1.10,2013-07-20 08:24:00,
2013-07-20 03:39:00,76.0,66.0,29.86,SW,221,5.0,-999.0,72,-99.99,,,0.00,weatherlink.com 1.10,2013-07-20 08:39:00,
2013-07-20 03:54:00,75.8,67.0,29.86,SW,227,4.0,-999.0,73,-99.99,,,0.00,weatherlink.com 1.10,2013-07-20 08:54:00,
2013-07-20 04:09:00,75.6,66.0,29.86,SW,219,4.0,-999.0,73,-99.99,,,0.00,weatherlink.com 1.10,2013-07-20 09:09:00,
2013-07-20 04:24:00,75.3,66.0,29.86,SW,223,0.0,-999.0,73,-99.99,,,0.00,weatherlink.com 1.10,2013-07-20 09:24:00,
2013-07-20 04:39:00,75.1,66.0,29.86,SW,224,2.0,-999.0,74,-99.99,,,0.00,weatherlink.com 1.10,2013-07-20 09:39:00,
2013-07-20 04:54:00,74.9,67.0,29.86,SW,228,0.0,-999.0,75,-99.99,,,0.00,weatherlink.com 1.10,2013-07-20 09:54:00,
2013-07-20 05:09:00,74.9,67.0,29.86,SSW,206,4.0,-999.0,75,-99.99,,,0.00,weatherlink.com 1.10,2013-07-20 10:09:00,
2013-07-20 05:24:00,74.7,67.0,29.86,SW,225,0.0,-999.0,76,-99.99,,,0.00,weatherlink.com 1.10,2013-07-20 10:24:00,
2013-07-20 05:39:00,74.6,67.0,29.86,SSW,194,6.0,-999.0,76,-99.99,,,0.00,weatherlink.com 1.10,2013-07-20 10:39:00,
2013-07-20 05:54:00,74.6,67.0,29.86,SSW,209,3.0,-999.0,76,-99.99,,,0.00,weatherlink.com 1.10,2013-07-20 10:54:00,
2013-07-20 06:09:00,74.6,67.0,29.86,SSW,194,2.0,-999.0,77,-99.99,,,0.00,weatherlink.com 1.10,2013-07-20 11:09:00,
2013-07-20 06:24:00,74.6,67.0,29.86,SSW,207,0.0,-999.0,77,-99.99,,,0.00,weatherlink.com 1.10,2013-07-20 11:24:00,
2013-07-20 06:39:00,74.4,67.0,29.86,SSW,205,0.0,-999.0,78,-99.99,,,0.00,weatherlink.com 1.10,2013-07-20 11:39:00,
2013-07-20 06:54:00,74.0,67.0,29.86,SSW,202,0.0,-999.0,78,-99.99,,,0.00,weatherlink.com 1.10,2013-07-20 11:54:00,
2013-07-20 07:09:00,74.0,67.0,29.86,SSW,192,0.0,-999.0,79,-99.99,,,0.00,weatherlink.com 1.10,2013-07-20 12:09:00,
2013-07-20 07:24:00,74.6,68.0,29.86,SW,221,0.0,-999.0,79,-99.99,,,0.00,weatherlink.com 1.10,2013-07-20 12:24:00,
2013-07-20 07:39:00,75.1,68.0,29.86,WSW,238,0.0,-999.0,79,-99.99,,,0.00,weatherlink.com 1.10,2013-07-20 12:39:00,
2013-07-20 07:54:00,75.6,68.0,29.86,SSW,206,0.0,-999.0,78,-99.99,,,0.00,weatherlink.com 1.10,2013-07-20 12:54:00,
2013-07-20 08:09:00,76.3,69.0,29.86,SSE,153,1.0,-999.0,77,-99.99,,,0.00,weatherlink.com 1.10,2013-07-20 13:09:00,
2013-07-20 08:24:00,77.0,69.0,29.86,South,171,4.0,-999.0,76,-99.99,,,0.00,weatherlink.com 1.10,2013-07-20 13:24:00,
2013-07-20 08:39:00,77.7,69.0,29.86,WSW,239,4.0,-999.0,75,-99.99,,,0.00,weatherlink.com 1.10,2013-07-20 13:39:00,
2013-07-20 08:54:00,79.0,69.0,29.86,SSW,200,0.0,-999.0,72,-99.99,,,0.00,weatherlink.com 1.10,2013-07-20 13:54:00,
2013-07-20 09:09:00,79.9,69.0,29.86,SW,217,1.0,-999.0,70,-99.99,,,0.00,weatherlink.com 1.10,2013-07-20 14:09:00,
2013-07-20 09:24:00,80.9,70.0,29.86,SW,217,0.0,-999.0,69,-99.99,,,0.00,weatherlink.com 1.10,2013-07-20 14:24:00,
2013-07-20 09:39:00,81.8,70.0,29.86,SSW,196,0.0,-999.0,67,-99.99,,,0.00,weatherlink.com 1.10,2013-07-20 14:39:00,
2013-07-20 09:54:00,83.2,70.0,29.86,SSW,209,1.0,-999.0,65,-99.99,,,0.00,weatherlink.com 1.10,2013-07-20 14:54:00,
2013-07-20 10:09:00,84.5,70.0,29.86,SW,217,0.0,-999.0,61,-99.99,,,0.00,weatherlink.com 1.10,2013-07-20 15:09:00,
2013-07-20 10:24:00,84.9,70.0,29.86,SE,140,4.0,-999.0,61,-99.99,,,0.00,weatherlink.com 1.10,2013-07-20 15:24:00,
2013-07-20 10:39:00,85.3,70.0,29.86,South,184,1.0,-999.0,60,-99.99,,,0.00,weatherlink.com 1.10,2013-07-20 15:39:00,
2013-07-20 10:54:00,86.3,70.0,29.86,South,184,0.0,-999.0,59,-99.99,,,0.00,weatherlink.com 1.10,2013-07-20 15:54:00,
2013-07-20 11:09:00,87.6,70.0,29.86,SSE,168,5.0,-999.0,56,-99.99,,,0.00,weatherlink.com 1.10,2013-07-20 16:09:00,
2013-07-20 11:24:00,87.6,70.0,29.86,South,180,0.0,-999.0,56,-99.99,,,0.00,weatherlink.com 1.10,2013-07-20 16:24:00,
2013-07-20 11:39:00,88.6,70.0,29.86,SE,132,5.0,-999.0,55,-99.99,,,0.00,weatherlink.com 1.10,2013-07-20 16:39:00,
2013-07-20 11:54:00,88.4,70.0,29.86,SE,128,5.0,-999.0,55,-99.99,,,0.00,weatherlink.com 1.10,2013-07-20 16:54:00,
2013-07-20 12:09:00,89.5,70.0,29.86,ESE,118,2.0,-999.0,53,-99.99,,,0.00,weatherlink.com 1.10,2013-07-20 17:09:00,
2013-07-20 12:24:00,89.7,70.0,29.86,SSE,168,1.0,-999.0,52,-99.99,,,0.00,weatherlink.com 1.10,2013-07-20 17:24:00,
2013-07-20 12:39:00,90.7,70.0,29.85,South,182,6.0,-999.0,50,-99.99,,,0.00,weatherlink.com 1.10,2013-07-20 17:39:00,
2013-07-20 12:54:00,90.7,70.0,29.85,SE,128,5.0,-999.0,50,-99.99,,,0.00,weatherlink.com 1.10,2013-07-20 17:54:00,
2013-07-20 13:09:00,91.6,69.0,29.84,South,174,0.0,-999.0,47,-99.99,,,0.00,weatherlink.com 1.10,2013-07-20 18:09:00,
2013-07-20 13:24:00,91.2,69.0,29.84,SE,136,5.0,-999.0,49,-99.99,,,0.00,weatherlink.com 1.10,2013-07-20 18:24:00,
2013-07-20 13:39:00,91.4,69.0,29.83,South,169,4.0,-999.0,48,-99.99,,,0.00,weatherlink.com 1.10,2013-07-20 18:39:00,
2013-07-20 13:54:00,92.1,68.0,29.83,SSE,163,10.0,-999.0,46,-99.99,,,0.00,weatherlink.com 1.10,2013-07-20 18:54:00,
2013-07-20 14:09:00,92.7,69.0,29.82,SSE,159,2.0,-999.0,46,-99.99,,,0.00,weatherlink.com 1.10,2013-07-20 19:09:00,
2013-07-20 14:24:00,93.2,70.0,29.81,East,99,4.0,-999.0,47,-99.99,,,0.00,weatherlink.com 1.10,2013-07-20 19:24:00,
2013-07-20 14:39:00,93.8,69.0,29.81,SSE,150,2.0,-999.0,44,-99.99,,,0.00,weatherlink.com 1.10,2013-07-20 19:39:00,
2013-07-20 14:54:00,94.3,69.0,29.80,South,172,12.0,-999.0,43,-99.99,,,0.00,weatherlink.com 1.10,2013-07-20 19:54:00,
2013-07-20 15:09:00,94.7,68.0,29.80,SSE,162,9.0,-999.0,42,-99.99,,,0.00,weatherlink.com 1.10,2013-07-20 20:09:00,
2013-07-20 15:24:00,94.5,67.0,29.78,SE,130,4.0,-999.0,41,-99.99,,,0.00,weatherlink.com 1.10,2013-07-20 20:24:00,
2013-07-20 15:39:00,94.7,68.0,29.78,ESE,121,10.0,-999.0,42,-99.99,,,0.00,weatherlink.com 1.10,2013-07-20 20:39:00,
2013-07-20 15:54:00,94.5,67.0,29.76,South,169,6.0,-999.0,40,-99.99,,,0.00,weatherlink.com 1.10,2013-07-20 20:54:00,
2013-07-20 16:09:00,95.4,66.0,29.76,SSW,212,5.0,-999.0,38,-99.99,,,0.00,weatherlink.com 1.10,2013-07-20 21:09:00,
2013-07-20 16:24:00,94.9,65.0,29.76,SE,130,1.0,-999.0,37,-99.99,,,0.00,weatherlink.com 1.10,2013-07-20 21:24:00,
2013-07-20 16:39:00,95.6,66.0,29.75,South,178,12.0,-999.0,38,-99.99,,,0.00,weatherlink.com 1.10,2013-07-20 21:39:00,
2013-07-20 16:54:00,95.4,67.0,29.74,South,174,10.0,-999.0,39,-99.99,,,0.00,weatherlink.com 1.10,2013-07-20 21:54:00,
2013-07-20 17:09:00,94.7,67.0,29.74,SSE,161,10.0,-999.0,40,-99.99,,,0.00,weatherlink.com 1.10,2013-07-20 22:09:00,
2013-07-20 17:24:00,94.9,66.0,29.74,South,169,10.0,-999.0,39,-99.99,,,0.00,weatherlink.com 1.10,2013-07-20 22:24:00,
2013-07-20 17:54:00,94.5,65.0,29.73,South,169,2.0,-999.0,38,-99.99,,,0.00,weatherlink.com 1.10,2013-07-20 22:54:00,
2013-07-20 18:09:00,95.1,63.0,29.73,SW,217,7.0,-999.0,35,-99.99,,,0.00,weatherlink.com 1.10,2013-07-20 23:09:00,
2013-07-20 18:24:00,94.5,65.0,29.74,South,175,3.0,-999.0,38,-99.99,,,0.00,weatherlink.com 1.10,2013-07-20 23:24:00,
2013-07-20 19:09:00,94.0,68.0,29.75,SSW,197,8.0,-999.0,42,-99.99,,,0.00,weatherlink.com 1.10,2013-07-21 00:09:00,
2013-07-20 19:39:00,92.3,68.0,29.75,SSW,196,6.0,-999.0,45,-99.99,,,0.00,weatherlink.com 1.10,2013-07-21 00:39:00,
2013-07-20 20:09:00,90.5,69.0,29.75,SE,140,4.0,-999.0,49,-99.99,,,0.00,weatherlink.com 1.10,2013-07-21 01:09:00,
2013-07-20 20:24:00,89.7,69.0,29.76,South,176,3.0,-999.0,51,-99.99,,,0.00,weatherlink.com 1.10,2013-07-21 01:24:00,
2013-07-20 20:39:00,88.8,69.0,29.76,SSE,157,2.0,-999.0,53,-99.99,,,0.00,weatherlink.com 1.10,2013-07-21 01:39:00,
2013-07-20 20:54:00,88.0,69.0,29.76,SSE,158,0.0,-999.0,54,-99.99,,,0.00,weatherlink.com 1.10,2013-07-21 01:54:00,
2013-07-20 21:09:00,87.4,69.0,29.76,SE,146,0.0,-999.0,55,-99.99,,,0.00,weatherlink.com 1.10,2013-07-21 02:09:00,
2013-07-20 21:39:00,86.3,70.0,29.77,SSE,164,4.0,-999.0,58,-99.99,,,0.00,weatherlink.com 1.10,2013-07-21 02:39:00,
2013-07-20 21:54:00,85.7,69.0,29.78,SE,144,2.0,-999.0,58,-99.99,,,0.00,weatherlink.com 1.10,2013-07-21 02:54:00,
2013-07-20 22:09:00,85.5,69.0,29.78,SSE,165,4.0,-999.0,59,-99.99,,,0.00,weatherlink.com 1.10,2013-07-21 03:09:00,
2013-07-20 22:24:00,85.3,69.0,29.79,SSE,149,2.0,-999.0,59,-99.99,,,0.00,weatherlink.com 1.10,2013-07-21 03:24:00,
2013-07-20 22:39:00,85.1,70.0,29.80,SSE,167,1.0,-999.0,60,-99.99,,,0.00,weatherlink.com 1.10,2013-07-21 03:39:00,
2013-07-20 23:09:00,84.3,69.0,29.78,South,180,4.0,-999.0,60,-99.99,,,0.00,weatherlink.com 1.10,2013-07-21 04:09:00,
2013-07-20 23:24:00,84.1,69.0,29.78,SSE,167,0.0,-999.0,60,-99.99,,,0.00,weatherlink.com 1.10,2013-07-21 04:24:00,
2013-07-20 23:39:00,83.8,69.0,29.79,East,89,0.0,-999.0,61,-99.99,,,0.00,weatherlink.com 1.10,2013-07-21 04:39:00,
2013-07-20 23:54:00,83.4,68.0,29.80,NE,34,3.0,-999.0,61,-99.99,,,0.00,weatherlink.com 1.10,2013-07-21 04:54:00,